sensor_id;sensor_type;location;lat;lon;timestamp;pressure;altitude;pressure_sealevel;temperature;humidity
76762;BME280;65705;51.032;13.790;2023-05-10T00:01:05;99844.63;;;14.19;46.91
76762;BME280;65705;51.032;13.790;2023-05-10T00:03:31;99842.53;;;14.15;47.01
76762;BME280;65705;51.032;13.790;2023-05-10T00:05:58;99844.53;;;14.13;46.89
76762;BME280;65705;51.032;13.790;2023-05-10T00:08:24;99834.16;;;14.11;47.27
76762;BME280;65705;51.032;13.790;2023-05-10T00:10:49;99837.88;;;14.17;47.07
76762;BME280;65705;51.032;13.790;2023-05-10T00:13:15;99835.25;;;14.17;46.96
76762;BME280;65705;51.032;13.790;2023-05-10T00:15:41;99829.34;;;14.15;46.71
76762;BME280;65705;51.032;13.790;2023-05-10T00:18:07;99831.34;;;14.13;47.01
76762;BME280;65705;51.032;13.790;2023-05-10T00:20:33;99833.00;;;14.14;47.02
76762;BME280;65705;51.032;13.790;2023-05-10T00:22:58;99830.97;;;14.16;46.97
76762;BME280;65705;51.032;13.790;2023-05-10T00:25:24;99833.81;;;14.14;46.94
76762;BME280;65705;51.032;13.790;2023-05-10T00:27:50;99835.63;;;14.14;46.87
76762;BME280;65705;51.032;13.790;2023-05-10T00:30:16;99834.75;;;14.07;47.05
76762;BME280;65705;51.032;13.790;2023-05-10T00:32:42;99833.91;;;14.06;47.01
76762;BME280;65705;51.032;13.790;2023-05-10T00:35:08;99827.97;;;13.98;46.88
76762;BME280;65705;51.032;13.790;2023-05-10T00:37:35;99827.31;;;13.96;47.41
76762;BME280;65705;51.032;13.790;2023-05-10T00:40:02;99826.88;;;13.92;47.37
76762;BME280;65705;51.032;13.790;2023-05-10T00:42:27;99824.63;;;13.89;47.27
76762;BME280;65705;51.032;13.790;2023-05-10T00:44:54;99817.50;;;13.90;47.30
76762;BME280;65705;51.032;13.790;2023-05-10T00:47:20;99815.44;;;13.85;47.42
76762;BME280;65705;51.032;13.790;2023-05-10T00:49:46;99808.91;;;13.81;47.31
76762;BME280;65705;51.032;13.790;2023-05-10T00:52:11;99809.28;;;13.78;47.45
76762;BME280;65705;51.032;13.790;2023-05-10T00:54:37;99812.91;;;13.77;47.56
76762;BME280;65705;51.032;13.790;2023-05-10T00:57:03;99817.09;;;13.71;47.81
76762;BME280;65705;51.032;13.790;2023-05-10T00:59:29;99813.22;;;13.67;47.78
76762;BME280;65705;51.032;13.790;2023-05-10T01:01:55;99804.88;;;13.64;47.79
76762;BME280;65705;51.032;13.790;2023-05-10T01:04:21;99806.03;;;13.61;47.61
76762;BME280;65705;51.032;13.790;2023-05-10T01:06:51;99808.03;;;13.59;47.58
76762;BME280;65705;51.032;13.790;2023-05-10T01:09:18;99808.44;;;13.56;47.59
76762;BME280;65705;51.032;13.790;2023-05-10T01:11:45;99801.50;;;13.55;47.75
76762;BME280;65705;51.032;13.790;2023-05-10T01:14:10;99802.91;;;13.51;47.83
76762;BME280;65705;51.032;13.790;2023-05-10T01:16:38;99808.50;;;13.48;47.73
76762;BME280;65705;51.032;13.790;2023-05-10T01:19:27;99805.88;;;13.48;47.85
76762;BME280;65705;51.032;13.790;2023-05-10T01:22:36;99805.63;;;13.43;47.97
76762;BME280;65705;51.032;13.790;2023-05-10T01:30:35;99809.63;;;13.39;47.95
76762;BME280;65705;51.032;13.790;2023-05-10T01:38:55;99801.00;;;13.31;48.44
76762;BME280;65705;51.032;13.790;2023-05-10T01:41:24;99796.44;;;13.25;48.57
76762;BME280;65705;51.032;13.790;2023-05-10T01:44:18;99792.19;;;13.24;48.64
76762;BME280;65705;51.032;13.790;2023-05-10T01:46:53;99792.56;;;13.21;48.84
76762;BME280;65705;51.032;13.790;2023-05-10T01:49:26;99790.66;;;13.15;48.92
76762;BME280;65705;51.032;13.790;2023-05-10T01:52:00;99790.41;;;13.10;49.23
76762;BME280;65705;51.032;13.790;2023-05-10T01:54:30;99795.41;;;13.05;49.15
76762;BME280;65705;51.032;13.790;2023-05-10T01:57:06;99795.06;;;13.00;49.49
76762;BME280;65705;51.032;13.790;2023-05-10T01:59:35;99795.63;;;12.95;49.62
76762;BME280;65705;51.032;13.790;2023-05-10T02:02:05;99792.34;;;12.93;49.63
76762;BME280;65705;51.032;13.790;2023-05-10T02:04:34;99790.28;;;12.89;49.89
76762;BME280;65705;51.032;13.790;2023-05-10T02:07:00;99789.81;;;12.85;50.02
76762;BME280;65705;51.032;13.790;2023-05-10T02:09:27;99789.63;;;12.87;49.99
76762;BME280;65705;51.032;13.790;2023-05-10T02:11:58;99798.34;;;12.87;49.86
76762;BME280;65705;51.032;13.790;2023-05-10T02:14:26;99788.00;;;12.86;49.89
76762;BME280;65705;51.032;13.790;2023-05-10T02:16:53;99790.63;;;12.86;49.66
76762;BME280;65705;51.032;13.790;2023-05-10T02:19:21;99787.34;;;12.84;50.32
76762;BME280;65705;51.032;13.790;2023-05-10T02:21:49;99788.81;;;12.86;50.07
76762;BME280;65705;51.032;13.790;2023-05-10T02:24:17;99785.91;;;12.81;50.52
76762;BME280;65705;51.032;13.790;2023-05-10T02:26:45;99782.63;;;12.79;50.27
76762;BME280;65705;51.032;13.790;2023-05-10T02:29:14;99784.44;;;12.79;50.54
76762;BME280;65705;51.032;13.790;2023-05-10T02:31:41;99780.19;;;12.78;50.60
76762;BME280;65705;51.032;13.790;2023-05-10T02:34:09;99780.72;;;12.73;50.60
76762;BME280;65705;51.032;13.790;2023-05-10T02:36:37;99783.06;;;12.68;50.74
76762;BME280;65705;51.032;13.790;2023-05-10T02:39:04;99781.47;;;12.67;50.83
76762;BME280;65705;51.032;13.790;2023-05-10T02:41:35;99787.50;;;12.67;50.88
76762;BME280;65705;51.032;13.790;2023-05-10T02:44:02;99783.25;;;12.66;51.25
76762;BME280;65705;51.032;13.790;2023-05-10T02:46:29;99784.09;;;12.67;50.73
76762;BME280;65705;51.032;13.790;2023-05-10T02:48:55;99783.91;;;12.68;50.97
76762;BME280;65705;51.032;13.790;2023-05-10T02:51:24;99780.81;;;12.65;51.02
76762;BME280;65705;51.032;13.790;2023-05-10T02:53:53;99772.66;;;12.60;51.11
76762;BME280;65705;51.032;13.790;2023-05-10T02:56:24;99775.28;;;12.60;51.27
76762;BME280;65705;51.032;13.790;2023-05-10T02:58:52;99772.47;;;12.61;51.22
76762;BME280;65705;51.032;13.790;2023-05-10T03:01:18;99773.63;;;12.59;51.43
76762;BME280;65705;51.032;13.790;2023-05-10T03:03:43;99775.72;;;12.49;51.62
76762;BME280;65705;51.032;13.790;2023-05-10T03:06:09;99781.94;;;12.48;51.79
76762;BME280;65705;51.032;13.790;2023-05-10T03:08:35;99778.69;;;12.46;51.79
76762;BME280;65705;51.032;13.790;2023-05-10T03:13:51;99781.69;;;12.43;51.97
76762;BME280;65705;51.032;13.790;2023-05-10T03:16:29;99784.31;;;12.43;52.10
76762;BME280;65705;51.032;13.790;2023-05-10T03:21:37;99780.94;;;12.34;52.46
76762;BME280;65705;51.032;13.790;2023-05-10T03:24:08;99778.50;;;12.33;52.49
76762;BME280;65705;51.032;13.790;2023-05-10T03:26:38;99776.78;;;12.40;52.45
76762;BME280;65705;51.032;13.790;2023-05-10T03:29:12;99775.50;;;12.36;52.60
76762;BME280;65705;51.032;13.790;2023-05-10T03:31:40;99783.56;;;12.34;52.67
76762;BME280;65705;51.032;13.790;2023-05-10T03:34:05;99786.19;;;12.34;52.78
76762;BME280;65705;51.032;13.790;2023-05-10T03:36:32;99786.84;;;12.36;52.73
76762;BME280;65705;51.032;13.790;2023-05-10T03:38:58;99780.38;;;12.39;52.80
76762;BME280;65705;51.032;13.790;2023-05-10T03:41:24;99780.56;;;12.37;52.67
76762;BME280;65705;51.032;13.790;2023-05-10T03:43:51;99777.13;;;12.37;52.96
76762;BME280;65705;51.032;13.790;2023-05-10T03:46:17;99772.84;;;12.36;52.87
76762;BME280;65705;51.032;13.790;2023-05-10T03:48:43;99772.16;;;12.42;52.53
76762;BME280;65705;51.032;13.790;2023-05-10T03:51:09;99769.44;;;12.50;52.35
76762;BME280;65705;51.032;13.790;2023-05-10T03:53:35;99779.06;;;12.57;52.29
76762;BME280;65705;51.032;13.790;2023-05-10T03:56:01;99778.69;;;12.60;52.26
76762;BME280;65705;51.032;13.790;2023-05-10T03:58:26;99780.25;;;12.69;52.04
76762;BME280;65705;51.032;13.790;2023-05-10T04:00:53;99784.00;;;12.75;51.85
76762;BME280;65705;51.032;13.790;2023-05-10T04:03:19;99785.72;;;12.83;51.61
76762;BME280;65705;51.032;13.790;2023-05-10T04:05:45;99789.81;;;12.85;51.69
76762;BME280;65705;51.032;13.790;2023-05-10T04:08:11;99791.06;;;12.89;51.64
76762;BME280;65705;51.032;13.790;2023-05-10T04:10:37;99793.53;;;12.91;51.69
76762;BME280;65705;51.032;13.790;2023-05-10T04:13:02;99784.72;;;12.98;51.46
76762;BME280;65705;51.032;13.790;2023-05-10T04:15:28;99788.56;;;12.96;51.67
76762;BME280;65705;51.032;13.790;2023-05-10T04:17:54;99788.00;;;13.00;51.45
76762;BME280;65705;51.032;13.790;2023-05-10T04:20:20;99779.41;;;13.06;51.37
76762;BME280;65705;51.032;13.790;2023-05-10T04:22:45;99782.31;;;13.11;51.34
76762;BME280;65705;51.032;13.790;2023-05-10T04:25:11;99782.03;;;13.21;51.35
76762;BME280;65705;51.032;13.790;2023-05-10T04:27:37;99787.75;;;13.24;51.03
76762;BME280;65705;51.032;13.790;2023-05-10T04:30:03;99787.00;;;13.30;51.06
76762;BME280;65705;51.032;13.790;2023-05-10T04:32:29;99795.91;;;13.44;50.68
76762;BME280;65705;51.032;13.790;2023-05-10T04:34:55;99792.69;;;13.48;50.44
76762;BME280;65705;51.032;13.790;2023-05-10T04:37:21;99796.34;;;13.47;50.80
76762;BME280;65705;51.032;13.790;2023-05-10T04:39:48;99793.72;;;13.47;50.63
76762;BME280;65705;51.032;13.790;2023-05-10T04:42:13;99796.97;;;13.49;50.80
76762;BME280;65705;51.032;13.790;2023-05-10T04:44:40;99792.94;;;13.53;50.75
76762;BME280;65705;51.032;13.790;2023-05-10T04:47:06;99777.56;;;13.57;50.87
76762;BME280;65705;51.032;13.790;2023-05-10T04:49:31;99785.13;;;13.60;50.82
76762;BME280;65705;51.032;13.790;2023-05-10T04:51:57;99783.38;;;13.67;50.53
76762;BME280;65705;51.032;13.790;2023-05-10T04:54:23;99782.00;;;13.71;50.51
76762;BME280;65705;51.032;13.790;2023-05-10T04:56:49;99777.97;;;13.75;50.54
76762;BME280;65705;51.032;13.790;2023-05-10T04:59:15;99773.78;;;13.81;50.86
76762;BME280;65705;51.032;13.790;2023-05-10T05:01:41;99773.66;;;13.89;50.15
76762;BME280;65705;51.032;13.790;2023-05-10T05:04:07;99769.47;;;13.94;50.49
76762;BME280;65705;51.032;13.790;2023-05-10T05:06:32;99780.25;;;13.99;50.08
76762;BME280;65705;51.032;13.790;2023-05-10T05:08:58;99780.13;;;14.07;50.03
76762;BME280;65705;51.032;13.790;2023-05-10T05:11:24;99776.53;;;14.15;49.70
76762;BME280;65705;51.032;13.790;2023-05-10T05:13:50;99781.63;;;14.16;49.95
76762;BME280;65705;51.032;13.790;2023-05-10T05:16:17;99771.34;;;14.21;49.75
76762;BME280;65705;51.032;13.790;2023-05-10T05:18:42;99782.69;;;14.22;49.73
76762;BME280;65705;51.032;13.790;2023-05-10T05:21:15;99776.94;;;14.33;49.74
76762;BME280;65705;51.032;13.790;2023-05-10T05:23:42;99785.09;;;14.38;49.68
76762;BME280;65705;51.032;13.790;2023-05-10T05:26:08;99777.25;;;14.44;49.82
76762;BME280;65705;51.032;13.790;2023-05-10T05:28:34;99768.72;;;14.49;49.89
76762;BME280;65705;51.032;13.790;2023-05-10T05:31:06;99771.88;;;14.59;49.80
76762;BME280;65705;51.032;13.790;2023-05-10T05:33:33;99766.03;;;14.70;49.37
76762;BME280;65705;51.032;13.790;2023-05-10T05:36:03;99768.94;;;14.75;49.41
76762;BME280;65705;51.032;13.790;2023-05-10T05:38:29;99773.66;;;14.86;49.26
76762;BME280;65705;51.032;13.790;2023-05-10T05:40:56;99767.38;;;14.87;49.27
76762;BME280;65705;51.032;13.790;2023-05-10T05:43:22;99769.63;;;14.90;48.75
76762;BME280;65705;51.032;13.790;2023-05-10T05:45:48;99763.75;;;14.95;49.03
76762;BME280;65705;51.032;13.790;2023-05-10T05:48:14;99765.19;;;14.97;48.85
76762;BME280;65705;51.032;13.790;2023-05-10T05:50:40;99772.34;;;15.03;48.59
76762;BME280;65705;51.032;13.790;2023-05-10T05:53:06;99761.00;;;15.09;48.96
76762;BME280;65705;51.032;13.790;2023-05-10T05:55:32;99771.59;;;15.16;48.42
76762;BME280;65705;51.032;13.790;2023-05-10T05:57:58;99761.22;;;15.21;48.28
76762;BME280;65705;51.032;13.790;2023-05-10T06:00:24;99763.47;;;15.24;47.97
76762;BME280;65705;51.032;13.790;2023-05-10T06:02:49;99768.19;;;15.28;47.96
76762;BME280;65705;51.032;13.790;2023-05-10T06:05:15;99759.06;;;15.31;47.53
76762;BME280;65705;51.032;13.790;2023-05-10T06:07:41;99765.56;;;15.35;47.89
76762;BME280;65705;51.032;13.790;2023-05-10T06:10:10;99771.28;;;15.38;47.60
76762;BME280;65705;51.032;13.790;2023-05-10T06:12:35;99769.50;;;15.45;47.74
76762;BME280;65705;51.032;13.790;2023-05-10T06:15:02;99776.22;;;15.48;47.46
76762;BME280;65705;51.032;13.790;2023-05-10T06:17:29;99784.19;;;15.54;47.33
76762;BME280;65705;51.032;13.790;2023-05-10T06:19:55;99783.59;;;15.59;47.57
76762;BME280;65705;51.032;13.790;2023-05-10T06:22:21;99789.31;;;15.62;47.07
76762;BME280;65705;51.032;13.790;2023-05-10T06:24:48;99793.00;;;15.68;47.14
76762;BME280;65705;51.032;13.790;2023-05-10T06:27:14;99793.00;;;15.74;47.27
76762;BME280;65705;51.032;13.790;2023-05-10T06:29:40;99796.06;;;15.78;47.01
76762;BME280;65705;51.032;13.790;2023-05-10T06:32:06;99793.00;;;15.81;47.25
76762;BME280;65705;51.032;13.790;2023-05-10T06:34:32;99784.69;;;15.84;46.71
76762;BME280;65705;51.032;13.790;2023-05-10T06:36:57;99787.34;;;15.91;47.12
76762;BME280;65705;51.032;13.790;2023-05-10T06:39:23;99796.09;;;15.98;47.04
76762;BME280;65705;51.032;13.790;2023-05-10T06:41:49;99798.16;;;16.02;46.65
76762;BME280;65705;51.032;13.790;2023-05-10T06:44:14;99792.25;;;16.07;46.89
76762;BME280;65705;51.032;13.790;2023-05-10T06:46:40;99792.84;;;16.15;46.80
76762;BME280;65705;51.032;13.790;2023-05-10T06:49:07;99800.22;;;16.20;46.86
76762;BME280;65705;51.032;13.790;2023-05-10T06:51:33;99791.66;;;16.31;46.17
76762;BME280;65705;51.032;13.790;2023-05-10T06:53:59;99796.34;;;16.35;45.95
76762;BME280;65705;51.032;13.790;2023-05-10T06:56:25;99806.13;;;16.35;45.84
76762;BME280;65705;51.032;13.790;2023-05-10T06:58:51;99797.38;;;16.34;45.84
76762;BME280;65705;51.032;13.790;2023-05-10T07:01:17;99797.78;;;16.38;45.93
76762;BME280;65705;51.032;13.790;2023-05-10T07:03:42;99797.56;;;16.39;45.60
76762;BME280;65705;51.032;13.790;2023-05-10T07:06:08;99794.72;;;16.41;46.04
76762;BME280;65705;51.032;13.790;2023-05-10T07:08:34;99800.03;;;16.47;46.10
76762;BME280;65705;51.032;13.790;2023-05-10T07:11:04;99801.88;;;16.53;46.02
76762;BME280;65705;51.032;13.790;2023-05-10T07:13:31;99800.88;;;16.54;45.90
76762;BME280;65705;51.032;13.790;2023-05-10T07:15:57;99797.00;;;16.57;45.70
76762;BME280;65705;51.032;13.790;2023-05-10T07:18:24;99797.19;;;16.62;45.66
76762;BME280;65705;51.032;13.790;2023-05-10T07:20:50;99792.50;;;16.64;45.50
76762;BME280;65705;51.032;13.790;2023-05-10T07:23:15;99798.19;;;16.67;45.27
76762;BME280;65705;51.032;13.790;2023-05-10T07:25:47;99793.09;;;16.72;45.70
76762;BME280;65705;51.032;13.790;2023-05-10T07:28:13;99795.53;;;16.80;45.86
76762;BME280;65705;51.032;13.790;2023-05-10T07:30:39;99799.00;;;16.81;45.80
76762;BME280;65705;51.032;13.790;2023-05-10T07:33:05;99799.81;;;16.88;45.68
76762;BME280;65705;51.032;13.790;2023-05-10T07:35:30;99803.47;;;16.94;45.10
76762;BME280;65705;51.032;13.790;2023-05-10T07:37:56;99803.06;;;16.97;44.65
76762;BME280;65705;51.032;13.790;2023-05-10T07:40:22;99801.63;;;17.01;44.69
76762;BME280;65705;51.032;13.790;2023-05-10T07:42:47;99799.75;;;17.01;44.58
76762;BME280;65705;51.032;13.790;2023-05-10T07:45:13;99800.78;;;17.07;44.61
76762;BME280;65705;51.032;13.790;2023-05-10T07:47:39;99803.25;;;17.08;44.44
76762;BME280;65705;51.032;13.790;2023-05-10T07:50:05;99803.44;;;17.13;44.57
76762;BME280;65705;51.032;13.790;2023-05-10T07:52:31;99802.00;;;17.17;44.38
76762;BME280;65705;51.032;13.790;2023-05-10T07:54:57;99802.56;;;17.19;44.22
76762;BME280;65705;51.032;13.790;2023-05-10T07:57:22;99804.22;;;17.20;44.26
76762;BME280;65705;51.032;13.790;2023-05-10T07:59:50;99789.09;;;17.27;44.61
76762;BME280;65705;51.032;13.790;2023-05-10T08:02:16;99796.41;;;17.32;44.62
76762;BME280;65705;51.032;13.790;2023-05-10T08:04:42;99792.94;;;17.38;44.42
76762;BME280;65705;51.032;13.790;2023-05-10T08:07:07;99797.41;;;17.44;44.36
76762;BME280;65705;51.032;13.790;2023-05-10T08:09:33;99795.97;;;17.48;43.87
76762;BME280;65705;51.032;13.790;2023-05-10T08:11:59;99801.28;;;17.54;43.79
76762;BME280;65705;51.032;13.790;2023-05-10T08:14:28;99788.81;;;17.55;44.14
76762;BME280;65705;51.032;13.790;2023-05-10T08:16:55;99794.31;;;17.60;44.15
76762;BME280;65705;51.032;13.790;2023-05-10T08:19:20;99805.72;;;17.67;44.65
76762;BME280;65705;51.032;13.790;2023-05-10T08:21:47;99804.84;;;17.73;44.28
76762;BME280;65705;51.032;13.790;2023-05-10T08:24:12;99793.59;;;17.77;44.29
76762;BME280;65705;51.032;13.790;2023-05-10T08:26:38;99801.72;;;17.82;44.10
76762;BME280;65705;51.032;13.790;2023-05-10T08:29:04;99803.56;;;17.88;43.76
76762;BME280;65705;51.032;13.790;2023-05-10T08:31:30;99800.47;;;17.92;43.74
76762;BME280;65705;51.032;13.790;2023-05-10T08:33:55;99797.97;;;17.97;43.65
76762;BME280;65705;51.032;13.790;2023-05-10T08:36:21;99809.59;;;18.02;43.58
76762;BME280;65705;51.032;13.790;2023-05-10T08:38:53;99810.19;;;18.04;43.31
76762;BME280;65705;51.032;13.790;2023-05-10T08:41:22;99811.63;;;18.07;43.33
76762;BME280;65705;51.032;13.790;2023-05-10T08:43:52;99818.09;;;18.11;43.57
76762;BME280;65705;51.032;13.790;2023-05-10T08:46:20;99819.53;;;18.13;43.07
76762;BME280;65705;51.032;13.790;2023-05-10T08:48:47;99815.19;;;18.19;43.49
76762;BME280;65705;51.032;13.790;2023-05-10T08:51:15;99815.59;;;18.22;43.78
76762;BME280;65705;51.032;13.790;2023-05-10T08:53:44;99823.94;;;18.26;43.51
76762;BME280;65705;51.032;13.790;2023-05-10T08:56:09;99821.06;;;18.27;43.10
76762;BME280;65705;51.032;13.790;2023-05-10T08:58:36;99826.91;;;18.36;43.45
76762;BME280;65705;51.032;13.790;2023-05-10T09:01:02;99835.69;;;18.43;43.23
76762;BME280;65705;51.032;13.790;2023-05-10T09:03:29;99833.22;;;18.48;43.66
76762;BME280;65705;51.032;13.790;2023-05-10T09:05:55;99834.19;;;18.53;43.56
76762;BME280;65705;51.032;13.790;2023-05-10T09:08:23;99835.97;;;18.59;43.07
76762;BME280;65705;51.032;13.790;2023-05-10T09:10:51;99838.22;;;18.62;43.11
76762;BME280;65705;51.032;13.790;2023-05-10T09:13:18;99844.06;;;18.71;43.26
76762;BME280;65705;51.032;13.790;2023-05-10T09:15:45;99845.03;;;18.76;43.20
76762;BME280;65705;51.032;13.790;2023-05-10T09:18:11;99849.47;;;18.82;42.58
76762;BME280;65705;51.032;13.790;2023-05-10T09:20:37;99845.94;;;18.88;42.44
76762;BME280;65705;51.032;13.790;2023-05-10T09:23:03;99846.31;;;18.92;42.77
76762;BME280;65705;51.032;13.790;2023-05-10T09:25:28;99849.34;;;18.96;42.88
76762;BME280;65705;51.032;13.790;2023-05-10T09:27:54;99849.13;;;18.97;42.69
76762;BME280;65705;51.032;13.790;2023-05-10T09:30:30;99847.44;;;19.03;42.60
76762;BME280;65705;51.032;13.790;2023-05-10T09:32:57;99845.75;;;19.08;42.52
76762;BME280;65705;51.032;13.790;2023-05-10T09:35:25;99843.25;;;19.13;42.74
76762;BME280;65705;51.032;13.790;2023-05-10T09:37:53;99841.09;;;19.22;42.55
76762;BME280;65705;51.032;13.790;2023-05-10T09:40:26;99849.63;;;19.30;42.26
76762;BME280;65705;51.032;13.790;2023-05-10T09:45:18;99846.03;;;19.43;42.95
76762;BME280;65705;51.032;13.790;2023-05-10T09:47:45;99851.97;;;19.45;42.40
76762;BME280;65705;51.032;13.790;2023-05-10T09:50:11;99845.13;;;19.49;41.90
76762;BME280;65705;51.032;13.790;2023-05-10T09:55:23;99838.84;;;19.61;41.47
76762;BME280;65705;51.032;13.790;2023-05-10T09:57:59;99847.34;;;19.70;41.54
76762;BME280;65705;51.032;13.790;2023-05-10T10:00:26;99840.88;;;19.77;41.63
76762;BME280;65705;51.032;13.790;2023-05-10T10:02:56;99845.31;;;19.83;41.15
76762;BME280;65705;51.032;13.790;2023-05-10T10:05:35;99845.56;;;19.82;41.35
76762;BME280;65705;51.032;13.790;2023-05-10T10:08:04;99838.16;;;19.84;41.37
76762;BME280;65705;51.032;13.790;2023-05-10T10:10:31;99849.19;;;19.87;41.24
76762;BME280;65705;51.032;13.790;2023-05-10T10:12:57;99840.38;;;19.87;41.18
76762;BME280;65705;51.032;13.790;2023-05-10T10:15:24;99843.97;;;19.92;41.26
76762;BME280;65705;51.032;13.790;2023-05-10T10:17:51;99844.09;;;19.98;41.05
76762;BME280;65705;51.032;13.790;2023-05-10T10:20:19;99836.00;;;19.92;41.08
76762;BME280;65705;51.032;13.790;2023-05-10T10:22:45;99823.69;;;19.91;40.92
76762;BME280;65705;51.032;13.790;2023-05-10T10:25:13;99838.66;;;19.92;41.36
76762;BME280;65705;51.032;13.790;2023-05-10T10:27:59;99836.84;;;20.05;41.65
76762;BME280;65705;51.032;13.790;2023-05-10T10:35:45;99831.25;;;20.24;41.01
76762;BME280;65705;51.032;13.790;2023-05-10T10:38:14;99835.22;;;20.33;40.95
76762;BME280;65705;51.032;13.790;2023-05-10T10:40:40;99834.97;;;20.35;40.35
76762;BME280;65705;51.032;13.790;2023-05-10T10:43:27;99847.53;;;20.34;39.54
76762;BME280;65705;51.032;13.790;2023-05-10T10:46:31;99840.31;;;20.35;39.72
76762;BME280;65705;51.032;13.790;2023-05-10T10:49:10;99842.31;;;20.39;40.19
76762;BME280;65705;51.032;13.790;2023-05-10T10:51:39;99845.56;;;20.41;39.53
76762;BME280;65705;51.032;13.790;2023-05-10T10:54:11;99848.13;;;20.48;40.12
76762;BME280;65705;51.032;13.790;2023-05-10T10:56:37;99846.38;;;20.53;39.36
76762;BME280;65705;51.032;13.790;2023-05-10T10:59:03;99839.22;;;20.54;39.67
76762;BME280;65705;51.032;13.790;2023-05-10T11:01:35;99838.63;;;20.63;39.95
76762;BME280;65705;51.032;13.790;2023-05-10T11:06:33;99846.19;;;20.78;39.86
76762;BME280;65705;51.032;13.790;2023-05-10T11:09:10;99845.75;;;20.81;38.75
76762;BME280;65705;51.032;13.790;2023-05-10T11:11:49;99842.59;;;20.84;39.08
76762;BME280;65705;51.032;13.790;2023-05-10T11:14:19;99847.03;;;20.90;39.07
76762;BME280;65705;51.032;13.790;2023-05-10T11:16:45;99843.41;;;20.96;39.48
76762;BME280;65705;51.032;13.790;2023-05-10T11:19:13;99842.47;;;20.90;39.08
76762;BME280;65705;51.032;13.790;2023-05-10T11:21:45;99842.25;;;20.92;39.09
76762;BME280;65705;51.032;13.790;2023-05-10T11:24:21;99843.00;;;20.99;39.61
76762;BME280;65705;51.032;13.790;2023-05-10T11:26:49;99842.72;;;21.12;39.47
76762;BME280;65705;51.032;13.790;2023-05-10T11:29:16;99846.31;;;21.18;39.20
76762;BME280;65705;51.032;13.790;2023-05-10T11:31:43;99847.50;;;21.22;39.25
76762;BME280;65705;51.032;13.790;2023-05-10T11:34:10;99842.97;;;21.22;39.24
76762;BME280;65705;51.032;13.790;2023-05-10T11:36:37;99843.75;;;21.23;39.85
76762;BME280;65705;51.032;13.790;2023-05-10T11:39:03;99841.56;;;21.31;39.59
76762;BME280;65705;51.032;13.790;2023-05-10T11:41:30;99852.44;;;21.41;38.69
76762;BME280;65705;51.032;13.790;2023-05-10T11:43:57;99846.38;;;21.46;37.77
76762;BME280;65705;51.032;13.790;2023-05-10T11:46:25;99849.41;;;21.49;37.68
76762;BME280;65705;51.032;13.790;2023-05-10T11:48:58;99845.81;;;21.55;38.19
76762;BME280;65705;51.032;13.790;2023-05-10T11:51:27;99851.38;;;21.65;38.22
76762;BME280;65705;51.032;13.790;2023-05-10T11:53:54;99851.91;;;21.67;38.80
76762;BME280;65705;51.032;13.790;2023-05-10T11:56:20;99852.72;;;21.68;38.16
76762;BME280;65705;51.032;13.790;2023-05-10T11:58:56;99847.81;;;21.76;37.65
76762;BME280;65705;51.032;13.790;2023-05-10T12:01:24;99853.66;;;21.73;37.76
76762;BME280;65705;51.032;13.790;2023-05-10T12:03:51;99859.47;;;21.70;38.05
76762;BME280;65705;51.032;13.790;2023-05-10T12:06:21;99847.72;;;21.71;37.72
76762;BME280;65705;51.032;13.790;2023-05-10T12:08:48;99855.84;;;21.76;37.69
76762;BME280;65705;51.032;13.790;2023-05-10T12:11:17;99863.19;;;21.81;37.92
76762;BME280;65705;51.032;13.790;2023-05-10T12:13:44;99845.41;;;21.86;38.35
76762;BME280;65705;51.032;13.790;2023-05-10T12:16:14;99863.00;;;21.99;37.94
76762;BME280;65705;51.032;13.790;2023-05-10T12:18:40;99856.00;;;22.10;37.47
76762;BME280;65705;51.032;13.790;2023-05-10T12:21:10;99857.47;;;22.17;38.19
76762;BME280;65705;51.032;13.790;2023-05-10T12:23:37;99854.06;;;22.22;37.63
76762;BME280;65705;51.032;13.790;2023-05-10T12:26:04;99858.91;;;22.25;37.61
76762;BME280;65705;51.032;13.790;2023-05-10T12:28:31;99858.38;;;22.23;36.57
76762;BME280;65705;51.032;13.790;2023-05-10T12:30:58;99861.91;;;22.28;36.86
76762;BME280;65705;51.032;13.790;2023-05-10T12:33:24;99862.94;;;22.39;37.62
76762;BME280;65705;51.032;13.790;2023-05-10T12:35:52;99862.03;;;22.50;37.65
76762;BME280;65705;51.032;13.790;2023-05-10T12:40:56;99868.97;;;22.62;37.03
76762;BME280;65705;51.032;13.790;2023-05-10T12:43:22;99870.19;;;22.71;36.75
76762;BME280;65705;51.032;13.790;2023-05-10T12:45:48;99863.63;;;22.79;36.82
76762;BME280;65705;51.032;13.790;2023-05-10T12:48:17;99865.91;;;22.87;36.51
76762;BME280;65705;51.032;13.790;2023-05-10T12:50:42;99863.63;;;22.79;36.07
76762;BME280;65705;51.032;13.790;2023-05-10T12:53:08;99871.97;;;22.82;36.34
76762;BME280;65705;51.032;13.790;2023-05-10T12:55:34;99873.69;;;22.88;35.94
76762;BME280;65705;51.032;13.790;2023-05-10T12:58:00;99872.16;;;22.92;36.05
76762;BME280;65705;51.032;13.790;2023-05-10T13:00:26;99873.25;;;22.96;36.30
76762;BME280;65705;51.032;13.790;2023-05-10T13:02:51;99867.00;;;23.08;36.53
76762;BME280;65705;51.032;13.790;2023-05-10T13:05:17;99878.91;;;23.17;36.85
76762;BME280;65705;51.032;13.790;2023-05-10T13:07:43;99879.66;;;23.29;35.69
76762;BME280;65705;51.032;13.790;2023-05-10T13:10:09;99873.13;;;23.41;36.28
76762;BME280;65705;51.032;13.790;2023-05-10T13:12:36;99871.84;;;23.44;35.29
76762;BME280;65705;51.032;13.790;2023-05-10T13:15:02;99878.25;;;23.43;35.58
76762;BME280;65705;51.032;13.790;2023-05-10T13:17:29;99870.69;;;23.40;35.06
76762;BME280;65705;51.032;13.790;2023-05-10T13:19:55;99866.72;;;23.42;35.34
76762;BME280;65705;51.032;13.790;2023-05-10T13:22:20;99864.16;;;23.52;35.30
76762;BME280;65705;51.032;13.790;2023-05-10T13:24:46;99868.50;;;23.53;35.85